createdAt,value
2019-04-29T00:00:07.799Z,9.20
2019-04-29T00:02:38.535Z,9.25
2019-04-29T00:05:09.855Z,8.55
2019-04-29T00:07:40.684Z,8.78
2019-04-29T00:10:12.353Z,8.30
2019-04-29T00:12:43.073Z,7.70
2019-04-29T00:15:22.055Z,7.47
2019-04-29T00:17:57.440Z,7.17
2019-04-29T00:20:35.801Z,8.80
2019-04-29T00:23:06.543Z,9.35
2019-04-29T00:25:37.171Z,9.70
2019-04-29T00:28:07.975Z,11.80
2019-04-29T00:30:38.622Z,13.03
2019-04-29T00:33:09.276Z,13.25
2019-04-29T00:35:40.259Z,11.90
2019-04-29T00:38:15.248Z,12.23
2019-04-29T00:40:56.426Z,15.70
2019-04-29T00:43:34.525Z,10.40
2019-04-29T00:46:05.762Z,11.57
2019-04-29T00:48:36.913Z,11.03
2019-04-29T00:51:07.642Z,11.57
2019-04-29T00:53:38.627Z,10.70
2019-04-29T00:56:09.964Z,9.80
2019-04-29T00:58:40.478Z,9.73
2019-04-29T01:01:14.237Z,9.55
2019-04-29T01:03:44.996Z,9.30
2019-04-29T01:06:15.812Z,9.03
2019-04-29T01:08:46.594Z,8.28
2019-04-29T01:11:17.270Z,8.53
2019-04-29T01:13:47.909Z,7.83
2019-04-29T01:16:18.893Z,8.40
2019-04-29T01:18:50.073Z,7.72
2019-04-29T01:21:20.799Z,7.53
2019-04-29T01:23:53.087Z,7.28
2019-04-29T01:26:31.314Z,7.90
2019-04-29T01:29:03.630Z,7.50
2019-04-29T01:31:36.535Z,7.25
2019-04-29T01:34:11.820Z,7.17
2019-04-29T01:36:43.963Z,6.60
2019-04-29T01:39:15.612Z,9.13
2019-04-29T01:42:06.123Z,9.70
2019-04-29T01:44:37.323Z,9.63
2019-04-29T01:47:08.159Z,8.60
2019-04-29T01:49:39.077Z,10.10
2019-04-29T01:52:09.912Z,9.85
2019-04-29T01:54:40.595Z,9.95
2019-04-29T01:57:11.381Z,9.43
2019-04-29T01:59:42.346Z,8.55
2019-04-29T02:02:12.991Z,9.15
2019-04-29T02:04:43.711Z,9.38
2019-04-29T02:07:14.893Z,11.15
2019-04-29T02:09:53.258Z,11.20
2019-04-29T02:12:24.150Z,10.25
2019-04-29T02:14:54.840Z,10.50
2019-04-29T02:17:25.511Z,8.20
2019-04-29T02:19:56.762Z,8.30
2019-04-29T02:22:29.010Z,11.15
2019-04-29T02:25:04.221Z,10.68
2019-04-29T02:27:35.004Z,10.08
2019-04-29T02:30:08.296Z,9.93
2019-04-29T02:32:39.052Z,8.85
2019-04-29T02:35:10.016Z,9.13
2019-04-29T02:37:42.154Z,9.38
2019-04-29T02:40:20.551Z,8.95
2019-04-29T02:42:52.862Z,8.20
2019-04-29T02:45:28.057Z,8.98
2019-04-29T02:47:59.061Z,7.75
2019-04-29T02:50:30.138Z,6.83
2019-04-29T02:53:00.860Z,7.08
2019-04-29T02:55:33.241Z,6.67
2019-04-29T02:58:12.262Z,6.35
2019-04-29T03:00:48.056Z,6.35
2019-04-29T03:03:20.183Z,5.97
2019-04-29T03:05:52.597Z,6.12
2019-04-29T03:08:23.360Z,6.85
2019-04-29T03:10:54.012Z,6.78
2019-04-29T03:13:24.880Z,6.55
2019-04-29T03:15:55.700Z,6.50
2019-04-29T03:18:28.235Z,5.72
2019-04-29T03:21:06.962Z,6.67
2019-04-29T03:23:39.478Z,6.40
2019-04-29T03:26:10.091Z,5.55
2019-04-29T03:28:40.765Z,5.60
2019-04-29T03:31:11.468Z,4.85
2019-04-29T03:33:42.215Z,5.37
2019-04-29T03:36:13.063Z,5.00
2019-04-29T03:38:43.742Z,4.97
2019-04-29T03:41:14.564Z,5.00
2019-04-29T03:43:45.132Z,5.37
2019-04-29T03:46:15.924Z,5.58
2019-04-29T03:48:46.471Z,4.90
2019-04-29T03:51:17.820Z,5.30
2019-04-29T03:53:48.658Z,4.75
2019-04-29T03:56:19.335Z,4.62
2019-04-29T03:58:50.322Z,4.83
2019-04-29T04:01:22.506Z,4.80
2019-04-29T04:04:13.171Z,4.65
2019-04-29T04:06:48.407Z,4.17
2019-04-29T04:09:20.824Z,4.45
2019-04-29T04:11:51.603Z,4.40
2019-04-29T04:14:22.251Z,4.20
2019-04-29T04:19:52.588Z,3.60
2019-04-29T04:22:23.899Z,3.35
2019-04-29T04:24:54.660Z,3.47
2019-04-29T04:27:25.351Z,3.47
2019-04-29T04:29:56.167Z,3.50
2019-04-29T04:32:26.841Z,3.67
2019-04-29T04:34:57.677Z,3.25
2019-04-29T04:37:28.662Z,3.22
2019-04-29T04:39:59.331Z,3.50
2019-04-29T04:42:30.378Z,3.55
2019-04-29T04:45:01.346Z,3.90
2019-04-29T04:47:32.099Z,3.70
2019-04-29T04:50:02.845Z,3.15
2019-04-29T04:52:34.198Z,3.70
2019-04-29T04:55:05.376Z,3.40
2019-04-29T04:57:36.032Z,3.27
2019-04-29T05:00:09.968Z,3.92
2019-04-29T05:02:40.669Z,3.72
2019-04-29T05:05:11.312Z,4.37
2019-04-29T05:07:42.198Z,4.10
2019-04-29T05:10:12.971Z,4.00
2019-04-29T05:12:43.703Z,3.90
2019-04-29T05:15:14.798Z,3.85
2019-04-29T05:17:45.463Z,4.40
2019-04-29T05:20:16.287Z,4.00
2019-04-29T05:23:02.843Z,4.92
2019-04-29T05:25:34.686Z,5.83
2019-04-29T05:28:05.737Z,5.10
2019-04-29T05:30:36.696Z,5.35
2019-04-29T05:33:07.378Z,4.67
2019-04-29T05:35:40.405Z,5.30
2019-04-29T05:38:32.950Z,5.72
2019-04-29T05:41:03.643Z,4.08
2019-04-29T05:43:35.856Z,3.87
2019-04-29T05:46:08.247Z,3.75
2019-04-29T05:48:38.947Z,3.55
2019-04-29T05:51:28.590Z,3.27
2019-04-29T05:54:19.882Z,3.62
2019-04-29T05:56:50.846Z,4.20
2019-04-29T05:59:21.498Z,4.30
2019-04-29T06:01:52.222Z,4.70
2019-04-29T06:04:23.109Z,5.22
2019-04-29T06:06:53.788Z,5.35
2019-04-29T06:09:24.511Z,3.85
2019-04-29T06:11:55.398Z,4.22
2019-04-29T06:14:26.088Z,4.50
2019-04-29T06:16:57.464Z,4.37
2019-04-29T06:19:29.079Z,4.50
2019-04-29T06:21:59.756Z,4.60
2019-04-29T06:24:30.459Z,4.08
2019-04-29T06:27:01.795Z,4.28
2019-04-29T06:29:32.541Z,4.45
2019-04-29T06:32:03.171Z,4.53
2019-04-29T06:34:35.610Z,4.25
2019-04-29T06:37:06.104Z,4.28
2019-04-29T06:39:36.751Z,4.67
2019-04-29T06:42:07.651Z,4.62
2019-04-29T06:44:38.308Z,4.10
2019-04-29T06:47:09.036Z,4.50
2019-04-29T06:49:39.914Z,4.92
2019-04-29T06:52:10.567Z,5.00
2019-04-29T06:54:41.760Z,4.67
2019-04-29T06:57:12.811Z,4.90
2019-04-29T06:59:47.465Z,4.62
2019-04-29T07:02:16.089Z,4.62
2019-04-29T07:04:47.114Z,5.20
2019-04-29T07:07:17.775Z,4.55
2019-04-29T07:09:48.498Z,4.78
2019-04-29T07:12:19.395Z,4.95
2019-04-29T07:14:50.059Z,4.90
2019-04-29T07:17:20.779Z,6.17
2019-04-29T07:19:51.785Z,6.22
2019-04-29T07:22:25.759Z,5.92
2019-04-29T07:24:54.587Z,6.58
2019-04-29T07:27:25.456Z,6.17
2019-04-29T07:29:56.439Z,6.50
2019-04-29T07:32:27.163Z,6.67
2019-04-29T07:34:58.051Z,6.35
2019-04-29T07:37:29.754Z,6.15
2019-04-29T07:40:03.668Z,6.65
2019-04-29T07:42:33.404Z,6.25
2019-04-29T07:45:23.761Z,6.50
2019-04-29T07:47:56.473Z,6.20
2019-04-29T07:50:28.575Z,6.00
2019-04-29T07:52:59.490Z,5.15
2019-04-29T07:55:31.379Z,5.28
2019-04-29T07:58:02.818Z,5.10
2019-04-29T08:00:35.410Z,5.12
2019-04-29T08:03:08.771Z,4.80
2019-04-29T08:05:39.991Z,4.87
2019-04-29T08:08:10.760Z,5.50
2019-04-29T08:10:53.611Z,5.55
2019-04-29T08:13:14.187Z,5.50
2019-04-29T08:15:44.827Z,5.35
2019-04-29T08:18:16.299Z,5.35
2019-04-29T08:20:47.795Z,5.45
2019-04-29T08:23:19.321Z,5.55
2019-04-29T08:25:50.991Z,5.53
2019-04-29T08:28:22.348Z,4.60
2019-04-29T08:30:53.435Z,4.47
2019-04-29T08:33:24.063Z,4.72
2019-04-29T08:35:54.955Z,4.30
2019-04-29T08:38:25.623Z,4.15
2019-04-29T08:40:59.256Z,3.98
2019-04-29T08:44:14.709Z,3.40
2019-04-29T08:46:51.685Z,3.42
2019-04-29T08:49:21.234Z,3.45
2019-04-29T08:51:52.093Z,3.30
2019-04-29T08:54:22.757Z,3.60
2019-04-29T08:57:02.789Z,3.52
2019-04-29T08:59:26.397Z,2.92
2019-04-29T09:01:57.151Z,3.60
2019-04-29T09:04:28.565Z,3.42
2019-04-29T09:07:11.992Z,3.30
2019-04-29T09:09:32.459Z,3.30
2019-04-29T09:12:03.319Z,3.60
2019-04-29T09:14:33.987Z,2.85
2019-04-29T09:17:08.970Z,2.60
2019-04-29T09:19:39.402Z,2.50
2019-04-29T09:22:10.462Z,2.70
2019-04-29T09:24:43.606Z,2.52
2019-04-29T09:27:19.392Z,3.00
2019-04-29T09:32:20.256Z,2.42
2019-04-29T09:34:51.068Z,3.05
2019-04-29T09:37:22.878Z,2.80
2019-04-29T09:39:54.121Z,2.30
2019-04-29T09:42:45.502Z,2.62
2019-04-29T09:45:31.343Z,2.67
2019-04-29T09:48:02.174Z,2.70
2019-04-29T09:50:34.219Z,2.70
2019-04-29T09:53:04.992Z,2.80
2019-04-29T09:55:39.820Z,3.45
2019-04-29T09:58:08.459Z,3.05
2019-04-29T10:00:49.836Z,2.80
2019-04-29T10:03:22.126Z,2.45
2019-04-29T10:06:12.560Z,2.85
2019-04-29T10:08:43.525Z,3.10
2019-04-29T10:11:14.783Z,3.02
2019-04-29T10:13:45.407Z,2.42
2019-04-29T10:16:17.441Z,2.37
2019-04-29T10:18:49.643Z,2.58
2019-04-29T10:21:21.400Z,2.60
2019-04-29T10:23:52.514Z,2.67
2019-04-29T10:26:23.265Z,2.00
2019-04-29T10:28:55.298Z,1.82
2019-04-29T10:31:26.632Z,2.10
2019-04-29T10:33:57.880Z,1.80
2019-04-29T10:36:29.267Z,2.00
2019-04-29T10:39:01.460Z,2.05
2019-04-29T10:41:35.960Z,1.90
2019-04-29T10:44:08.340Z,1.95
2019-04-29T10:46:58.555Z,1.80
2019-04-29T10:49:34.848Z,2.20
2019-04-29T10:52:05.682Z,2.05
2019-04-29T10:54:36.498Z,1.90
2019-04-29T10:57:10.567Z,2.08
2019-04-29T10:59:45.043Z,1.85
2019-04-29T11:02:27.003Z,2.30
2019-04-29T11:05:02.738Z,2.40
2019-04-29T11:07:38.359Z,1.90
2019-04-29T11:10:29.576Z,2.17
2019-04-29T11:13:01.110Z,1.90
2019-04-29T11:15:36.658Z,1.90
2019-04-29T11:20:38.662Z,1.95
2019-04-29T11:23:17.565Z,2.08
2019-04-29T11:26:03.395Z,2.30
2019-04-29T11:28:35.773Z,2.40
2019-04-29T11:31:09.821Z,1.75
2019-04-29T11:33:42.675Z,1.90
2019-04-29T11:36:15.139Z,2.30
2019-04-29T11:38:45.856Z,2.08
2019-04-29T11:41:19.736Z,2.30
2019-04-29T11:43:51.024Z,2.55
2019-04-29T11:46:28.358Z,2.65
2019-04-29T11:49:00.116Z,2.67
2019-04-29T11:52:07.358Z,2.30
2019-04-29T11:54:17.914Z,2.35
2019-04-29T11:56:45.432Z,2.40
2019-04-29T11:59:32.187Z,2.50
2019-04-29T12:02:09.746Z,2.40
2019-04-29T12:04:44.633Z,3.17
2019-04-29T12:07:15.466Z,2.62
2019-04-29T12:09:46.084Z,2.70
2019-04-29T12:12:17.210Z,2.98
2019-04-29T12:14:50.879Z,2.65
2019-04-29T12:17:43.056Z,2.80
2019-04-29T12:22:56.278Z,3.17
2019-04-29T12:25:28.973Z,3.08
2019-04-29T12:28:02.026Z,3.00
2019-04-29T12:30:34.684Z,2.87
2019-04-29T12:33:12.856Z,3.10
2019-04-29T12:35:51.997Z,3.08
2019-04-29T12:38:39.831Z,2.70
2019-04-29T12:41:05.526Z,2.92
2019-04-29T12:43:44.008Z,3.25
2019-04-29T12:46:16.107Z,3.47
2019-04-29T12:48:46.900Z,3.00
2019-04-29T12:51:18.756Z,3.12
2019-04-29T12:54:09.556Z,3.20
2019-04-29T12:56:43.288Z,3.87
2019-04-29T12:59:13.844Z,2.85
2019-04-29T13:01:59.037Z,3.30
2019-04-29T13:04:51.554Z,2.95
2019-04-29T13:07:29.367Z,3.27
2019-04-29T13:10:06.895Z,3.30
2019-04-29T13:12:39.878Z,2.87
2019-04-29T13:15:16.137Z,3.33
2019-04-29T13:18:03.025Z,3.60
2019-04-29T13:20:26.833Z,3.55
2019-04-29T13:23:01.134Z,3.30
2019-04-29T13:57:34.533Z,3.98
2019-04-29T14:00:15.028Z,3.45
2019-04-29T14:08:00.968Z,4.60
2019-04-29T14:10:31.399Z,5.30
2019-04-29T14:13:11.670Z,3.72
2019-04-29T14:15:38.035Z,3.65
2019-04-29T14:18:06.749Z,3.47
2019-04-29T14:20:38.106Z,3.72
2019-04-29T14:23:09.079Z,3.10
2019-04-29T14:25:43.213Z,3.30
2019-04-29T14:28:14.280Z,3.55
2019-04-29T14:30:47.672Z,2.92
2019-04-29T14:33:24.339Z,3.00
2019-04-29T14:36:05.663Z,2.83
2019-04-29T14:38:57.371Z,2.98
2019-04-29T14:41:30.047Z,2.90
2019-04-29T14:44:05.049Z,2.70
2019-04-29T14:46:37.337Z,2.60
2019-04-29T14:49:12.909Z,2.80
2019-04-29T14:54:14.868Z,2.80
2019-04-29T14:56:45.912Z,2.67
2019-04-29T14:59:16.797Z,2.47
2019-04-29T15:01:55.091Z,2.77
2019-04-29T15:04:30.357Z,2.62
2019-04-29T15:07:01.746Z,2.80
2019-04-29T15:09:45.867Z,3.05
2019-04-29T15:12:17.252Z,2.90
2019-04-29T15:14:54.724Z,3.37
2019-04-29T15:17:31.731Z,2.80
2019-04-29T15:20:10.253Z,2.67
2019-04-29T15:22:42.212Z,2.90
2019-04-29T15:25:16.705Z,2.85
2019-04-29T15:27:45.562Z,3.08
2019-04-29T15:30:16.569Z,2.60
2019-04-29T15:32:47.274Z,2.83
2019-04-29T15:35:19.859Z,2.10
2019-04-29T15:37:50.431Z,2.30
2019-04-29T15:40:26.415Z,1.90
2019-04-29T15:42:54.083Z,2.05
2019-04-29T15:45:28.073Z,1.62
2019-04-29T15:47:57.244Z,1.82
2019-04-29T15:50:27.989Z,1.40
2019-04-29T15:53:02.841Z,1.55
2019-04-29T15:55:34.915Z,1.57
2019-04-29T15:58:03.649Z,1.72
2019-04-29T16:00:37.902Z,1.67
2019-04-29T16:03:06.439Z,1.70
2019-04-29T16:06:19.272Z,1.60
2019-04-29T16:08:59.039Z,1.60
2019-04-29T16:11:49.129Z,1.57
2019-04-29T16:14:21.254Z,1.57
2019-04-29T16:16:52.073Z,1.70
2019-04-29T16:19:22.750Z,1.50
2019-04-29T16:21:53.464Z,1.50
2019-04-29T16:24:26.743Z,1.12
2019-04-29T16:27:01.422Z,1.10
2019-04-29T16:29:28.963Z,1.42
2019-04-29T16:32:02.214Z,1.10
2019-04-29T16:34:31.718Z,1.30
2019-04-29T16:37:02.500Z,1.32
2019-04-29T16:39:33.163Z,1.17
2019-04-29T16:42:05.590Z,1.17
2019-04-29T16:44:36.657Z,1.15
2019-04-29T16:47:13.073Z,1.10
2019-04-29T16:49:41.171Z,1.20
2019-04-29T16:52:11.819Z,1.20
2019-04-29T16:54:42.482Z,0.95
2019-04-29T16:57:13.374Z,1.00
2019-04-29T16:59:44.003Z,1.12
2019-04-29T17:02:19.434Z,1.57
2019-04-29T17:04:46.968Z,1.30
2019-04-29T17:07:18.624Z,1.10
2019-04-29T17:10:03.564Z,1.10
2019-04-29T17:12:38.521Z,1.10
2019-04-29T17:15:23.704Z,1.30
2019-04-29T17:17:41.602Z,1.40
2019-04-29T17:20:13.990Z,1.47
2019-04-29T17:22:44.795Z,1.35
2019-04-29T17:25:32.624Z,1.30
2019-04-29T17:28:25.422Z,1.67
2019-04-29T17:30:55.378Z,1.20
2019-04-29T17:33:49.165Z,1.27
2019-04-29T17:36:12.675Z,1.50
2019-04-29T17:38:43.415Z,1.40
2019-04-29T17:41:14.298Z,1.60
2019-04-29T17:43:52.595Z,1.50
2019-04-29T17:46:25.304Z,2.02
2019-04-29T17:48:57.537Z,2.10
2019-04-29T17:51:29.488Z,1.80
2019-04-29T17:54:01.771Z,1.87
2019-04-29T17:57:04.904Z,1.92
2019-04-29T17:59:29.554Z,1.90
2019-04-29T18:02:21.688Z,1.72
2019-04-29T18:05:07.835Z,1.70
2019-04-29T18:07:58.855Z,2.10
2019-04-29T18:10:31.378Z,1.77
2019-04-29T18:13:04.252Z,1.67
2019-04-29T18:15:51.630Z,1.87
2019-04-29T18:18:12.367Z,1.82
2019-04-29T18:20:42.609Z,2.08
2019-04-29T18:23:31.405Z,1.62
2019-04-29T18:26:04.837Z,1.70
2019-04-29T18:28:37.360Z,2.25
2019-04-29T18:31:09.552Z,2.00
2019-04-29T18:33:40.248Z,1.80
2019-04-29T18:36:21.843Z,1.90
2019-04-29T18:38:47.360Z,1.60
2019-04-29T18:41:24.404Z,1.60
2019-04-29T18:43:47.531Z,1.55
2019-04-29T18:46:18.351Z,1.70
2019-04-29T18:48:49.345Z,1.98
2019-04-29T18:51:20.779Z,1.90
2019-04-29T18:53:52.512Z,1.75
2019-04-29T18:56:23.247Z,2.35
2019-04-29T18:58:55.571Z,2.70
2019-04-29T19:01:28.962Z,2.37
2019-04-29T19:04:17.410Z,2.55
2019-04-29T19:06:51.233Z,2.12
2019-04-29T19:09:25.186Z,2.20
2019-04-29T19:11:56.246Z,1.90
2019-04-29T19:14:28.382Z,1.85
2019-04-29T19:17:01.271Z,1.47
2019-04-29T19:19:37.732Z,1.60
2019-04-29T19:22:05.798Z,1.67
2019-04-29T19:24:36.287Z,1.98
2019-04-29T19:27:10.025Z,2.00
2019-04-29T19:29:43.333Z,2.08
2019-04-29T19:32:12.454Z,2.37
2019-04-29T19:34:43.570Z,2.30
2019-04-29T19:37:15.933Z,2.55
2019-04-29T19:39:46.618Z,2.45
2019-04-29T19:42:28.378Z,2.30
2019-04-29T19:44:49.789Z,2.40
2019-04-29T19:47:20.425Z,2.60
2019-04-29T19:49:51.363Z,2.30
2019-04-29T19:52:30.537Z,2.52
2019-04-29T19:54:57.355Z,2.50
2019-04-29T19:57:26.622Z,3.02
2019-04-29T19:59:57.715Z,2.00
2019-04-29T20:02:28.997Z,2.98
2019-04-29T20:05:04.670Z,2.35
2019-04-29T20:07:40.837Z,2.58
2019-04-29T20:10:10.216Z,2.55
2019-04-29T20:12:39.999Z,2.52
2019-04-29T20:15:11.625Z,2.80
2019-04-29T20:17:53.033Z,2.75
2019-04-29T20:20:29.772Z,3.30
2019-04-29T20:23:00.636Z,2.80
2019-04-29T20:25:37.836Z,2.95
2019-04-29T20:28:08.028Z,3.00
2019-04-29T20:30:36.281Z,3.08
2019-04-29T20:33:09.686Z,4.33
2019-04-29T20:35:40.550Z,3.12
2019-04-29T20:38:11.615Z,3.50
2019-04-29T20:40:43.514Z,3.22
2019-04-29T20:43:16.052Z,3.42
2019-04-29T20:45:46.719Z,3.22
2019-04-29T20:48:19.583Z,3.60
2019-04-29T20:50:52.746Z,3.80
2019-04-29T20:53:25.525Z,3.60
2019-04-29T20:55:56.165Z,3.70
2019-04-29T20:58:31.522Z,3.85
2019-04-29T21:01:03.065Z,3.98
2019-04-29T21:03:32.440Z,3.90
2019-04-29T21:06:04.522Z,4.03
2019-04-29T21:08:35.779Z,4.22
2019-04-29T21:11:07.802Z,4.20
2019-04-29T21:13:57.257Z,4.72
2019-04-29T21:16:32.546Z,4.67
2019-04-29T21:19:08.830Z,4.60
2019-04-29T21:21:42.098Z,4.42
2019-04-29T21:24:17.200Z,4.65
2019-04-29T21:26:44.898Z,4.97
2019-04-29T21:29:19.424Z,4.25
2019-04-29T21:31:50.639Z,4.60
2019-04-29T21:34:22.362Z,4.40
2019-04-29T21:36:55.358Z,4.05
2019-04-29T21:39:32.336Z,4.20
2019-04-29T21:42:07.022Z,4.70
2019-04-29T21:44:37.847Z,5.70
2019-04-29T21:47:08.513Z,6.10
2019-04-29T21:49:45.422Z,6.00
2019-04-29T21:52:11.840Z,6.60
2019-04-29T21:54:44.591Z,6.40
2019-04-29T21:57:17.027Z,6.72
2019-04-29T21:59:48.633Z,6.87
2019-04-29T22:02:19.264Z,6.67
2019-04-29T22:04:50.191Z,6.87
2019-04-29T22:07:43.585Z,7.47
2019-04-29T22:10:12.335Z,7.47
2019-04-29T22:12:42.979Z,7.40
2019-04-29T22:15:15.841Z,7.35
2019-04-29T22:17:56.232Z,6.78
2019-04-29T22:20:19.077Z,7.72
2019-04-29T22:22:49.802Z,7.50
2019-04-29T22:25:20.600Z,7.25
2019-04-29T22:27:51.301Z,7.72
2019-04-29T22:30:22.275Z,7.65
2019-04-29T22:32:58.120Z,8.43
2019-04-29T22:35:27.731Z,7.22
2019-04-29T22:37:57.723Z,8.38
2019-04-29T22:40:28.404Z,7.58
2019-04-29T22:43:08.774Z,8.53
2019-04-29T22:45:34.001Z,8.78
2019-04-29T22:48:14.851Z,7.62
2019-04-29T22:53:10.700Z,8.28
2019-04-29T22:55:41.384Z,8.25
2019-04-29T22:58:12.101Z,7.67
2019-04-29T23:00:42.855Z,8.45
2019-04-29T23:03:13.582Z,8.50
2019-04-29T23:06:08.402Z,8.30
2019-04-29T23:08:38.275Z,8.18
2019-04-29T23:11:09.112Z,8.63
2019-04-29T23:13:41.306Z,9.48
2019-04-29T23:18:59.977Z,8.98
2019-04-29T23:21:49.879Z,9.45
2019-04-29T23:24:26.036Z,10.10
2019-04-29T23:26:58.894Z,10.00
2019-04-29T23:29:31.189Z,9.70
2019-04-29T23:32:04.713Z,10.13
2019-04-29T23:34:42.197Z,9.85
2019-04-29T23:37:12.940Z,10.80
2019-04-29T23:39:45.602Z,10.75
2019-04-29T23:42:16.252Z,10.48
2019-04-29T23:44:47.977Z,10.88
2019-04-29T23:47:18.650Z,10.82
2019-04-29T23:49:49.528Z,10.98
2019-04-29T23:52:20.353Z,10.10
2019-04-29T23:55:11.649Z,10.98
2019-04-29T23:57:46.895Z,11.48
